createdAt,value
2018-09-30T00:00:06.115Z,95494.67
2018-09-30T00:02:35.036Z,95498.77
2018-09-30T00:05:04.065Z,95497.11
2018-09-30T00:07:32.995Z,95502.21
2018-09-30T00:10:01.948Z,95500.72
2018-09-30T00:12:30.988Z,95497.78
2018-09-30T00:15:00.051Z,95502.86
2018-09-30T00:17:28.984Z,95505.66
2018-09-30T00:19:58.026Z,95508.28
2018-09-30T00:22:27.002Z,95505.48
2018-09-30T00:25:01.735Z,95505.98
2018-09-30T00:27:31.321Z,95508.75
2018-09-30T00:30:00.274Z,95509.59
2018-09-30T00:32:29.228Z,95504.02
2018-09-30T00:34:58.208Z,95507.14
2018-09-30T00:37:27.201Z,95507.95
2018-09-30T00:39:56.158Z,95508.10
2018-09-30T00:42:25.120Z,95509.59
2018-09-30T00:44:54.101Z,95509.59
2018-09-30T00:47:23.108Z,95514.84
2018-09-30T00:49:52.060Z,95514.35
2018-09-30T00:52:20.991Z,95521.36
2018-09-30T00:54:49.940Z,95529.17
2018-09-30T00:57:18.865Z,95529.88
2018-09-30T00:59:47.768Z,95532.37
2018-09-30T01:02:16.723Z,95529.30
2018-09-30T01:04:45.683Z,95533.43
2018-09-30T01:07:14.638Z,95529.49
2018-09-30T01:09:43.657Z,95530.13
2018-09-30T01:12:12.616Z,95530.95
2018-09-30T01:14:41.562Z,95541.16
2018-09-30T01:17:10.498Z,95534.79
2018-09-30T01:19:39.426Z,95539.59
2018-09-30T01:22:08.381Z,95540.91
2018-09-30T01:24:37.320Z,95544.98
2018-09-30T01:27:06.326Z,95553.05
2018-09-30T01:29:35.248Z,95546.95
2018-09-30T01:32:04.403Z,95547.18
2018-09-30T01:34:33.335Z,95546.72
2018-09-30T01:37:02.276Z,95545.77
2018-09-30T01:39:31.276Z,95547.25
2018-09-30T01:42:00.204Z,95541.83
2018-09-30T01:44:29.167Z,95548.80
2018-09-30T01:46:58.121Z,95542.16
2018-09-30T01:49:27.121Z,95547.39
2018-09-30T01:52:06.960Z,95552.35
2018-09-30T01:54:35.950Z,95545.33
2018-09-30T01:57:04.986Z,95545.78
2018-09-30T01:59:34.012Z,95553.70
2018-09-30T02:02:02.963Z,95551.25
2018-09-30T02:04:31.894Z,95555.05
2018-09-30T02:07:00.821Z,95550.78
2018-09-30T02:09:29.747Z,95553.87
2018-09-30T02:11:59.321Z,95553.70
2018-09-30T02:14:28.249Z,95554.38
2018-09-30T02:16:57.259Z,95552.72
2018-09-30T02:19:26.212Z,95550.27
2018-09-30T02:21:55.135Z,95552.73
2018-09-30T02:24:24.059Z,95549.87
2018-09-30T02:26:52.959Z,95558.73
2018-09-30T02:29:21.888Z,95550.38
2018-09-30T02:31:50.844Z,95546.77
2018-09-30T02:34:20.511Z,95546.94
2018-09-30T02:36:50.376Z,95552.31
2018-09-30T02:39:19.369Z,95548.08
2018-09-30T02:41:48.358Z,95552.59
2018-09-30T02:44:17.321Z,95562.55
2018-09-30T02:46:46.275Z,95563.02
2018-09-30T02:49:15.375Z,95563.84
2018-09-30T02:51:44.340Z,95562.68
2018-09-30T02:54:13.261Z,95566.38
2018-09-30T02:56:42.224Z,95567.73
2018-09-30T02:59:11.175Z,95567.23
2018-09-30T03:01:40.167Z,95570.16
2018-09-30T03:04:09.100Z,95565.66
2018-09-30T03:06:43.138Z,95576.98
2018-09-30T03:09:18.371Z,95582.16
2018-09-30T03:11:47.483Z,95572.77
2018-09-30T03:14:17.162Z,95584.57
2018-09-30T03:16:46.867Z,95570.59
2018-09-30T03:19:16.290Z,95579.20
2018-09-30T03:21:45.230Z,95578.70
2018-09-30T03:24:14.150Z,95576.31
2018-09-30T03:26:43.204Z,95578.67
2018-09-30T03:29:12.171Z,95584.05
2018-09-30T03:31:41.104Z,95579.91
2018-09-30T03:34:10.080Z,95580.66
2018-09-30T03:36:39.022Z,95581.64
2018-09-30T03:39:09.348Z,95577.25
2018-09-30T03:41:38.291Z,95582.40
2018-09-30T03:44:07.228Z,95586.02
2018-09-30T03:46:36.223Z,95593.27
2018-09-30T03:49:05.167Z,95600.34
2018-09-30T03:51:34.083Z,95597.02
2018-09-30T03:54:03.025Z,95601.56
2018-09-30T03:56:32.129Z,95597.81
2018-09-30T03:59:01.035Z,95596.70
2018-09-30T04:01:29.951Z,95601.50
2018-09-30T04:03:58.899Z,95606.48
2018-09-30T04:06:27.838Z,95607.02
2018-09-30T04:08:56.769Z,95600.30
2018-09-30T04:11:25.700Z,95599.64
2018-09-30T04:13:54.652Z,95609.00
2018-09-30T04:16:23.591Z,95611.56
2018-09-30T04:18:52.561Z,95608.23
2018-09-30T04:21:21.504Z,95613.08
2018-09-30T04:23:54.608Z,95619.54
2018-09-30T04:26:23.530Z,95616.72
2018-09-30T04:28:52.467Z,95618.23
2018-09-30T04:31:21.671Z,95621.62
2018-09-30T04:33:50.589Z,95622.80
2018-09-30T04:36:19.604Z,95625.52
2018-09-30T04:38:48.521Z,95630.02
2018-09-30T04:41:17.519Z,95635.20
2018-09-30T04:43:46.474Z,95639.84
2018-09-30T04:46:15.419Z,95640.22
2018-09-30T04:48:44.435Z,95642.83
2018-09-30T04:51:13.383Z,95640.44
2018-09-30T04:53:42.496Z,95642.39
2018-09-30T04:56:11.440Z,95642.83
2018-09-30T04:58:40.413Z,95651.78
2018-09-30T05:01:09.427Z,95647.14
2018-09-30T05:03:38.395Z,95642.88
2018-09-30T05:06:07.364Z,95605.06
2018-09-30T05:08:36.407Z,95635.24
2018-09-30T05:11:05.366Z,95635.24
2018-09-30T05:13:34.299Z,95634.19
2018-09-30T05:16:03.283Z,95635.78
2018-09-30T05:18:32.275Z,95640.56
2018-09-30T05:21:01.255Z,95641.63
2018-09-30T05:23:30.283Z,95642.53
2018-09-30T05:25:59.711Z,95642.33
2018-09-30T05:28:28.634Z,95647.15
2018-09-30T05:30:57.580Z,95646.01
2018-09-30T05:33:26.615Z,95644.77
2018-09-30T05:35:55.869Z,95651.48
2018-09-30T05:38:24.833Z,95651.23
2018-09-30T05:40:53.776Z,95652.26
2018-09-30T05:43:22.753Z,95658.88
2018-09-30T05:45:51.803Z,95651.70
2018-09-30T05:48:20.895Z,95658.39
2018-09-30T05:50:49.840Z,95662.70
2018-09-30T05:53:18.825Z,95660.48
2018-09-30T05:55:47.812Z,95661.95
2018-09-30T05:58:16.808Z,95673.64
2018-09-30T06:00:45.804Z,95669.27
2018-09-30T06:03:14.782Z,95671.56
2018-09-30T06:05:43.871Z,95664.47
2018-09-30T06:08:12.814Z,95673.13
2018-09-30T06:10:41.714Z,95670.09
2018-09-30T06:13:10.668Z,95673.07
2018-09-30T06:15:39.683Z,95673.63
2018-09-30T06:18:08.646Z,95673.84
2018-09-30T06:20:37.561Z,95674.66
2018-09-30T06:23:06.508Z,95669.73
2018-09-30T06:25:35.470Z,95668.76
2018-09-30T06:28:04.633Z,95677.47
2018-09-30T06:30:37.539Z,95676.47
2018-09-30T06:33:06.727Z,95682.81
2018-09-30T06:35:35.668Z,95690.11
2018-09-30T06:38:04.729Z,95689.95
2018-09-30T06:40:33.828Z,95696.16
2018-09-30T06:43:02.734Z,95695.09
2018-09-30T06:45:31.880Z,95697.86
2018-09-30T06:48:02.572Z,95690.80
2018-09-30T06:50:32.100Z,95692.38
2018-09-30T06:53:01.236Z,95695.59
2018-09-30T06:55:30.166Z,95697.78
2018-09-30T06:57:59.163Z,95697.78
2018-09-30T07:00:28.246Z,95697.64
2018-09-30T07:02:57.168Z,95700.11
2018-09-30T07:05:26.137Z,95701.45
2018-09-30T07:07:55.051Z,95696.50
2018-09-30T07:10:23.995Z,95709.09
2018-09-30T07:12:54.067Z,95697.92
2018-09-30T07:15:22.975Z,95709.16
2018-09-30T07:17:51.900Z,95701.39
2018-09-30T07:20:21.862Z,95705.91
2018-09-30T07:22:50.928Z,95702.86
2018-09-30T07:25:19.860Z,95711.02
2018-09-30T07:27:48.742Z,95708.24
2018-09-30T07:30:18.163Z,95705.81
2018-09-30T07:32:47.040Z,95714.73
2018-09-30T07:35:17.205Z,95709.59
2018-09-30T07:37:46.083Z,95721.30
2018-09-30T07:40:15.039Z,95727.56
2018-09-30T07:42:44.000Z,95712.43
2018-09-30T07:45:13.093Z,95715.34
2018-09-30T07:47:42.045Z,95721.91
2018-09-30T07:50:10.983Z,95726.50
